Time;durP1;ratioP1;P1;durP2;ratioP2;P2;SDS_P1;SDS_P2;PMS_P1;PMS_P2;Temp;Humidity;BMP_temperature;BMP_pressure;BME280_temperature;BME280_humidity;BME280_pressure;Samples;Min_cycle;Max_cycle;Signal;HPM_P1;HPM_P2
2021/12/28 00:00:16;;;;;;;135.02;43.97;;;-2.20;99.90;;;;;;5008175;28;20543;-75
2021/12/28 00:02:45;;;;;;;125.15;39.95;;;-2.20;99.90;;;;;;5001558;28;20111;-74
2021/12/28 00:05:11;;;;;;;138.60;44.70;;;;;;;;;;5005147;28;20369;-73
2021/12/28 00:07:38;;;;;;;139.82;43.28;;;-2.20;99.90;;;;;;4999963;28;20030;-75
2021/12/28 00:10:06;;;;;;;141.00;45.40;;;-2.30;99.90;;;;;;4996983;28;20025;-74
2021/12/28 00:12:34;;;;;;;130.20;42.63;;;-2.30;99.90;;;;;;4996183;28;20088;-73
2021/12/28 00:15:07;;;;;;;138.07;45.03;;;;;;;;;;5007983;28;20487;-74
2021/12/28 00:20:18;;;;;;;139.18;42.50;;;;;;;;;;4983570;28;20040;-74
2021/12/28 00:22:44;;;;;;;132.68;44.47;;;;;;;;;;5008840;28;20420;-74
2021/12/28 00:25:11;;;;;;;154.02;46.55;;;;;;;;;;5010598;28;20033;-75
2021/12/28 00:27:37;;;;;;;131.15;43.20;;;;;;;;;;4999616;28;20053;-74
2021/12/28 00:30:03;;;;;;;143.55;44.92;;;-2.70;99.90;;;;;;4993632;28;20080;-72
2021/12/28 00:32:29;;;;;;;149.65;46.75;;;;;;;;;;4999473;28;20435;-74
2021/12/28 00:34:55;;;;;;;136.02;42.20;;;-2.20;99.90;;;;;;5005352;28;20021;-74
2021/12/28 00:37:21;;;;;;;133.65;44.05;;;;;;;;;;4997332;28;20554;-74
2021/12/28 00:39:47;;;;;;;145.18;45.15;;;;;;;;;;4995330;28;20034;-72
2021/12/28 00:42:13;;;;;;;149.98;44.90;;;-2.40;99.90;;;;;;4992769;28;20030;-75
2021/12/28 00:44:39;;;;;;;140.07;43.83;;;-2.40;99.90;;;;;;5002481;28;20389;-74
2021/12/28 00:47:05;;;;;;;136.60;43.90;;;-2.30;99.90;;;;;;5003677;28;20052;-74
2021/12/28 00:49:31;;;;;;;136.45;44.67;;;;;;;;;;4995867;28;20027;-74
2021/12/28 00:51:57;;;;;;;127.72;44.28;;;;;;;;;;4999230;28;20042;-75
2021/12/28 00:54:23;;;;;;;145.63;45.00;;;;;;;;;;5004442;28;20026;-76
2021/12/28 00:56:49;;;;;;;149.35;48.08;;;;;;;;;;4311431;28;10000741;-75
2021/12/28 00:59:15;;;;;;;142.13;44.75;;;;;;;;;;4988684;28;20019;-74
2021/12/28 01:01:41;;;;;;;151.32;47.63;;;;;;;;;;4994259;28;20031;-75
2021/12/28 01:04:07;;;;;;;149.73;44.80;;;;;;;;;;5004220;28;20054;-76
2021/12/28 01:06:32;;;;;;;146.02;48.25;;;-2.50;99.90;;;;;;4995961;28;20441;-74
2021/12/28 01:08:58;;;;;;;153.70;45.72;;;-2.60;99.90;;;;;;4996239;28;20029;-76
2021/12/28 01:11:24;;;;;;;140.23;46.05;;;;;;;;;;5002075;28;20061;-74
2021/12/28 01:13:50;;;;;;;144.20;43.83;;;;;;;;;;4989865;28;20112;-73
2021/12/28 01:16:17;;;;;;;126.60;43.97;;;;;;;;;;4994177;28;20065;-75
2021/12/28 01:18:43;;;;;;;149.32;46.90;;;;;;;;;;4999261;28;20030;-75
2021/12/28 01:21:09;;;;;;;139.45;45.67;;;;;;;;;;5002535;28;20396;-75
2021/12/28 01:23:35;;;;;;;138.30;45.72;;;-2.40;99.90;;;;;;4996354;28;20042;-75
2021/12/28 01:26:02;;;;;;;144.07;46.13;;;-2.40;99.90;;;;;;5007535;28;20038;-75
2021/12/28 01:28:27;;;;;;;142.88;46.30;;;;;;;;;;5002213;28;20045;-75
2021/12/28 01:30:53;;;;;;;153.32;46.97;;;-2.30;99.90;;;;;;4996308;28;20035;-74
2021/12/28 01:33:19;;;;;;;139.27;46.40;;;;;;;;;;5006433;28;20069;-75
2021/12/28 01:35:45;;;;;;;137.90;44.67;;;-2.40;99.90;;;;;;4992797;28;20484;-75
2021/12/28 01:38:11;;;;;;;141.13;44.88;;;;;;;;;;4991142;28;20037;-73
2021/12/28 01:40:41;;;;;;;141.35;44.47;;;-2.50;99.90;;;;;;4995733;28;20030;-74
2021/12/28 01:43:16;;;;;;;153.32;49.42;;;-2.80;99.90;;;;;;4995375;28;20057;-76
2021/12/28 01:46:11;;;;;;;141.15;48.45;;;-2.50;99.90;;;;;;4996185;28;20623;-73
2021/12/28 01:48:41;;;;;;;152.20;49.47;;;-2.50;99.90;;;;;;4991091;28;20492;-75
2021/12/28 01:51:12;;;;;;;140.95;45.97;;;-2.50;99.90;;;;;;4995480;28;20034;-73
2021/12/28 01:53:38;;;;;;;134.57;44.75;;;-2.40;99.90;;;;;;5010433;28;20057;-75
2021/12/28 01:56:11;;;;;;;137.13;45.38;;;-2.40;99.90;;;;;;5009800;28;20499;-74
2021/12/28 01:58:38;;;;;;;144.75;47.63;;;-2.30;99.90;;;;;;4995066;28;20484;-75
2021/12/28 02:01:05;;;;;;;150.43;47.92;;;-2.10;99.90;;;;;;4995252;28;20030;-75
2021/12/28 02:03:32;;;;;;;153.45;48.35;;;-2.10;99.90;;;;;;4995027;28;20026;-75
2021/12/28 02:05:58;;;;;;;134.60;46.05;;;-2.10;99.90;;;;;;4994670;28;20091;-75
2021/12/28 02:08:24;;;;;;;141.35;44.97;;;-2.10;99.90;;;;;;4975378;28;20015;-75
2021/12/28 02:10:52;;;;;;;140.88;46.92;;;-2.10;99.90;;;;;;4975716;28;20019;-76
2021/12/28 02:13:18;;;;;;;138.88;45.75;;;-2.20;99.90;;;;;;4986303;28;20229;-75
2021/12/28 02:15:45;;;;;;;148.88;47.45;;;-2.30;99.90;;;;;;4995081;28;20495;-75
2021/12/28 02:18:15;;;;;;;149.50;47.90;;;-2.30;99.90;;;;;;4994999;28;20030;-75
2021/12/28 02:20:42;;;;;;;155.93;47.55;;;-2.40;99.90;;;;;;4996095;28;20038;-75
2021/12/28 02:23:07;;;;;;;151.20;46.95;;;-2.40;99.90;;;;;;5001663;28;20036;-76
2021/12/28 02:25:35;;;;;;;147.43;47.22;;;-2.50;99.90;;;;;;5016428;28;20046;-76
2021/12/28 02:28:02;;;;;;;155.80;46.30;;;-2.80;99.90;;;;;;5016977;28;20018;-76
2021/12/28 02:30:27;;;;;;;148.05;46.13;;;-2.60;99.90;;;;;;5014070;28;20022;-76
2021/12/28 02:32:53;;;;;;;147.57;46.05;;;-2.60;99.90;;;;;;5007273;28;20035;-75
2021/12/28 02:35:23;;;;;;;130.73;45.60;;;-2.60;99.90;;;;;;4994163;28;20519;-76
2021/12/28 02:37:50;;;;;;;145.93;46.65;;;-2.70;99.90;;;;;;4987864;28;20027;-76
2021/12/28 02:40:19;;;;;;;153.65;48.42;;;-2.70;99.90;;;;;;4974993;28;20086;-75
2021/12/28 02:42:45;;;;;;;149.25;45.05;;;-2.70;99.90;;;;;;4976935;28;20023;-76
2021/12/28 02:45:21;;;;;;;162.02;47.38;;;-2.70;99.90;;;;;;4993262;28;20030;-76
2021/12/28 02:47:47;;;;;;;158.63;49.85;;;-2.70;99.90;;;;;;4993546;28;20026;-76
2021/12/28 02:50:26;;;;;;;147.18;48.00;;;-2.70;99.90;;;;;;4993872;28;20081;-75
2021/12/28 02:52:53;;;;;;;152.10;48.78;;;-2.70;99.90;;;;;;4993555;28;20101;-75
2021/12/28 02:55:21;;;;;;;157.88;47.85;;;-2.40;99.90;;;;;;4993915;28;20027;-74
2021/12/28 02:58:09;;;;;;;158.63;47.47;;;-2.70;99.90;;;;;;4993378;28;20096;-74
2021/12/28 03:00:48;;;;;;;156.45;47.70;;;-2.70;99.90;;;;;;4984832;28;20042;-75
2021/12/28 03:03:20;;;;;;;151.02;46.38;;;-2.70;99.90;;;;;;4993656;28;20022;-75
2021/12/28 03:05:48;;;;;;;148.23;48.13;;;-2.70;99.90;;;;;;4993870;28;20034;-75
2021/12/28 03:08:15;;;;;;;145.23;47.58;;;-2.70;99.90;;;;;;4993301;28;20022;-75
2021/12/28 03:10:43;;;;;;;164.80;47.10;;;-2.50;99.90;;;;;;4993550;28;20027;-73
2021/12/28 03:13:13;;;;;;;149.13;46.08;;;-2.70;99.90;;;;;;4993445;28;20026;-75
2021/12/28 03:15:39;;;;;;;151.10;50.40;;;-2.70;99.90;;;;;;4993496;28;20121;-74
2021/12/28 03:18:04;;;;;;;157.80;47.35;;;-2.60;99.90;;;;;;4993081;28;20124;-75
2021/12/28 03:20:30;;;;;;;146.15;46.70;;;;;;;;;;4993460;28;20027;-75
2021/12/28 03:22:56;;;;;;;160.23;49.72;;;;;;;;;;4993163;28;20038;-75
2021/12/28 03:25:22;;;;;;;149.32;46.58;;;-2.50;99.90;;;;;;4993116;28;20048;-73
2021/12/28 03:27:48;;;;;;;151.10;47.65;;;-2.50;99.90;;;;;;4991469;28;20084;-75
2021/12/28 03:30:15;;;;;;;153.40;47.65;;;-2.40;99.90;;;;;;4993481;28;20050;-75
2021/12/28 03:32:41;;;;;;;148.75;47.10;;;-2.50;99.90;;;;;;4993287;28;20041;-76
2021/12/28 03:35:09;;;;;;;162.02;47.65;;;-2.40;99.90;;;;;;4991785;28;20112;-75
2021/12/28 03:37:37;;;;;;;148.88;47.55;;;-2.40;99.90;;;;;;4991493;28;20117;-75
2021/12/28 03:40:07;;;;;;;160.23;47.80;;;-2.60;99.90;;;;;;4993464;28;20034;-74
2021/12/28 03:42:33;;;;;;;150.15;46.42;;;-2.40;99.90;;;;;;4993018;28;20523;-75
2021/12/28 03:44:59;;;;;;;159.00;49.03;;;-2.50;99.90;;;;;;4992309;28;20048;-74
2021/12/28 03:47:25;;;;;;;144.80;45.20;;;;;;;;;;4992868;28;20105;-74
2021/12/28 03:49:51;;;;;;;160.35;48.97;;;-2.60;99.90;;;;;;4992887;28;20456;-75
2021/12/28 03:52:16;;;;;;;154.98;49.72;;;-2.60;99.90;;;;;;4992767;28;20030;-74
2021/12/28 03:54:42;;;;;;;141.68;47.33;;;-2.60;99.90;;;;;;4993035;28;20121;-74
2021/12/28 03:57:07;;;;;;;152.50;48.53;;;-2.60;99.90;;;;;;4992203;28;20488;-73
2021/12/28 03:59:33;;;;;;;153.00;47.72;;;-2.60;99.90;;;;;;4992672;28;20045;-73
2021/12/28 04:01:58;;;;;;;149.48;48.60;;;-2.60;99.90;;;;;;4992750;28;20022;-74
2021/12/28 04:04:25;;;;;;;149.07;48.08;;;-2.40;99.90;;;;;;4992330;28;20108;-75
2021/12/28 04:06:50;;;;;;;161.82;48.85;;;-2.40;99.90;;;;;;4992403;28;20396;-73
2021/12/28 04:09:23;;;;;;;155.18;46.13;;;-2.50;99.90;;;;;;4992558;28;20023;-75
2021/12/28 04:11:49;;;;;;;149.93;48.72;;;-2.40;99.90;;;;;;4992060;28;20021;-75
2021/12/28 04:14:15;;;;;;;154.77;48.20;;;-2.40;99.90;;;;;;4991603;28;20058;-75
2021/12/28 04:16:41;;;;;;;161.98;50.33;;;-2.40;99.90;;;;;;4992135;28;20049;-75
2021/12/28 04:19:07;;;;;;;157.55;49.63;;;-2.40;99.90;;;;;;4992419;28;20028;-75
2021/12/28 04:21:34;;;;;;;144.85;47.92;;;-2.30;99.90;;;;;;4991290;28;20101;-73
2021/12/28 04:24:01;;;;;;;142.40;46.90;;;-2.30;99.90;;;;;;4992580;28;20042;-75
2021/12/28 04:26:27;;;;;;;152.10;48.22;;;-2.30;99.90;;;;;;4991713;28;20018;-74
2021/12/28 04:28:53;;;;;;;159.80;49.17;;;-2.20;99.90;;;;;;4992077;28;20018;-76
2021/12/28 04:31:19;;;;;;;150.60;49.47;;;-2.10;99.90;;;;;;4992369;28;20396;-75
2021/12/28 04:33:45;;;;;;;146.18;49.63;;;-1.60;99.90;;;;;;4991800;28;20035;-73
2021/12/28 04:36:16;;;;;;;162.50;50.85;;;-1.80;99.90;;;;;;4991881;28;20117;-74
2021/12/28 04:38:43;;;;;;;153.25;49.38;;;-2.00;99.90;;;;;;4992086;28;20157;-75
2021/12/28 04:41:10;;;;;;;163.60;49.53;;;;;;;;;;4992185;28;20023;-74
2021/12/28 04:43:36;;;;;;;133.65;41.30;;;-1.10;99.90;;;;;;4991511;28;20430;-76
2021/12/28 04:46:03;;;;;;;140.10;46.88;;;;;;;;;;4992072;28;20444;-74
2021/12/28 04:48:28;;;;;;;156.95;48.83;;;-2.10;99.90;;;;;;4990737;28;20533;-75
2021/12/28 04:50:54;;;;;;;158.23;48.03;;;-2.10;99.90;;;;;;4992173;28;20107;-75
2021/12/28 04:53:20;;;;;;;156.50;50.35;;;;;;;;;;4992242;28;20022;-74
2021/12/28 04:55:48;;;;;;;156.02;48.90;;;-2.10;99.90;;;;;;4992490;28;20525;-75
2021/12/28 04:58:14;;;;;;;145.07;48.40;;;;;;;;;;4996368;28;20027;-75
2021/12/28 05:00:42;;;;;;;145.73;49.03;;;-2.00;99.90;;;;;;4995783;28;20188;-74
2021/12/28 05:03:08;;;;;;;149.23;47.85;;;-1.90;99.90;;;;;;4996679;28;20504;-74
2021/12/28 05:05:35;;;;;;;164.80;51.25;;;;;;;;;;4996183;28;20035;-75
2021/12/28 05:08:04;;;;;;;155.75;48.83;;;-2.00;99.90;;;;;;4996204;28;20034;-76
2021/12/28 05:10:30;;;;;;;152.68;48.42;;;-1.90;99.90;;;;;;4996091;28;20365;-75
2021/12/28 05:12:56;;;;;;;153.00;46.55;;;-1.70;99.90;;;;;;4996051;28;20058;-74
2021/12/28 05:15:21;;;;;;;156.82;48.95;;;-1.60;99.90;;;;;;5010905;28;20068;-74
2021/12/28 05:17:48;;;;;;;164.55;50.45;;;-2.00;99.90;;;;;;4995481;28;20032;-75
2021/12/28 05:20:14;;;;;;;156.38;49.58;;;-1.40;99.90;;;;;;4996105;28;20034;-75
2021/12/28 05:22:40;;;;;;;155.77;49.05;;;-1.40;99.90;;;;;;5011054;28;20030;-75
2021/12/28 05:25:06;;;;;;;152.40;49.40;;;-1.20;99.90;;;;;;4995880;28;20022;-77
2021/12/28 05:27:32;;;;;;;154.45;49.38;;;;;;;;;;4994677;28;20045;-75
2021/12/28 05:29:58;;;;;;;166.10;50.50;;;;;;;;;;4996154;28;20026;-75
2021/12/28 05:32:24;;;;;;;160.52;51.33;;;;;;;;;;4997486;28;20396;-76
2021/12/28 05:34:50;;;;;;;154.32;49.42;;;-1.00;99.90;;;;;;4997285;28;20531;-76
2021/12/28 05:37:16;;;;;;;163.38;49.40;;;-1.70;99.90;;;;;;4998762;28;20069;-75
2021/12/28 05:39:50;;;;;;;153.10;49.25;;;-1.10;99.90;;;;;;5004839;28;20037;-76
2021/12/28 05:42:16;;;;;;;147.38;50.63;;;-1.10;99.90;;;;;;5009453;28;20045;-75
2021/12/28 05:44:42;;;;;;;162.70;51.30;;;;;;;;;;5009566;28;20393;-74
2021/12/28 05:47:08;;;;;;;157.55;51.17;;;;;;;;;;5006289;28;20046;-75
2021/12/28 05:49:34;;;;;;;152.82;49.42;;;-1.20;99.90;;;;;;5013205;28;20460;-74
2021/12/28 05:52:00;;;;;;;154.82;48.92;;;;;;;;;;4996123;28;20046;-75
2021/12/28 05:54:26;;;;;;;147.10;49.28;;;-1.30;99.90;;;;;;4995069;28;20057;-74
2021/12/28 05:56:51;;;;;;;149.25;50.22;;;-1.30;99.90;;;;;;4995352;28;20026;-74
2021/12/28 05:59:17;;;;;;;151.52;50.30;;;-1.30;99.90;;;;;;4995523;28;20034;-75
2021/12/28 06:01:43;;;;;;;140.70;49.40;;;-1.30;99.90;;;;;;4995338;28;20034;-73
2021/12/28 06:04:08;;;;;;;173.68;52.08;;;-1.20;99.90;;;;;;4995588;28;20113;-74
2021/12/28 06:06:34;;;;;;;160.27;50.78;;;-1.20;99.90;;;;;;4994446;28;20097;-75
2021/12/28 06:09:00;;;;;;;159.70;48.67;;;-1.30;99.90;;;;;;4994845;28;20436;-75
2021/12/28 06:11:26;;;;;;;148.77;48.63;;;;;;;;;;4996092;28;20026;-75
2021/12/28 06:13:53;;;;;;;154.85;49.85;;;-1.20;99.90;;;;;;4995469;28;20058;-75
2021/12/28 06:16:18;;;;;;;144.27;47.97;;;-1.30;99.90;;;;;;4995513;28;20034;-72
2021/12/28 06:18:44;;;;;;;164.18;49.05;;;-1.20;99.90;;;;;;4995219;28;20038;-74
2021/12/28 06:21:09;;;;;;;166.65;49.78;;;-1.20;99.90;;;;;;4995402;28;20034;-74
2021/12/28 06:23:35;;;;;;;156.48;50.20;;;-1.10;99.90;;;;;;4994647;28;20048;-72
2021/12/28 06:26:01;;;;;;;151.95;48.35;;;-1.10;99.90;;;;;;4994830;28;20211;-75
2021/12/28 06:28:27;;;;;;;156.45;48.65;;;;;;;;;;4994589;28;20030;-75
2021/12/28 06:30:53;;;;;;;147.77;50.33;;;;;;;;;;4994713;28;20030;-74
2021/12/28 06:33:20;;;;;;;148.23;49.55;;;-0.60;99.90;;;;;;4994883;28;20539;-74
2021/12/28 06:35:46;;;;;;;169.52;52.83;;;-1.10;99.90;;;;;;4994772;28;20062;-74
2021/12/28 06:38:13;;;;;;;151.98;50.95;;;-1.10;99.90;;;;;;4994134;28;20030;-75
2021/12/28 06:40:38;;;;;;;154.45;51.05;;;-1.00;99.90;;;;;;4994307;28;20038;-76
2021/12/28 06:43:04;;;;;;;158.85;50.95;;;;;;;;;;4991167;28;20027;-75
2021/12/28 06:45:30;;;;;;;158.88;51.28;;;-0.90;99.90;;;;;;4975076;28;20070;-75
2021/12/28 06:47:55;;;;;;;148.85;50.22;;;-1.00;99.90;;;;;;4974743;28;20054;-75
2021/12/28 06:50:21;;;;;;;139.80;49.75;;;-0.40;99.90;;;;;;4991503;28;20045;-75
2021/12/28 06:52:47;;;;;;;154.40;48.40;;;-1.00;99.90;;;;;;4994212;28;20134;-75
2021/12/28 06:55:13;;;;;;;164.57;47.40;;;;;;;;;;4994461;28;20030;-75
2021/12/28 06:57:39;;;;;;;159.90;51.08;;;;;;;;;;4993665;28;20030;-74
2021/12/28 07:00:08;;;;;;;150.15;49.92;;;-0.90;99.90;;;;;;4993999;28;20488;-75
2021/12/28 07:02:34;;;;;;;158.07;51.42;;;;;;;;;;4991358;28;20038;-76
2021/12/28 07:05:00;;;;;;;157.82;50.40;;;;;;;;;;4998251;28;20093;-72
2021/12/28 07:07:26;;;;;;;161.23;52.67;;;;;;;;;;4990391;28;20101;-72
2021/12/28 07:09:52;;;;;;;157.90;50.20;;;;;;;;;;5007257;28;20152;-73
2021/12/28 07:12:17;;;;;;;144.73;50.90;;;-0.10;99.90;;;;;;4998328;28;20495;-73
2021/12/28 07:14:43;;;;;;;159.27;50.40;;;-0.90;99.90;;;;;;4996399;28;20510;-75
2021/12/28 07:17:09;;;;;;;158.15;49.72;;;;;;;;;;5003582;28;20524;-73
2021/12/28 07:19:35;;;;;;;160.98;50.63;;;;;;;;;;5004449;28;20077;-71
2021/12/28 07:22:01;;;;;;;161.35;49.45;;;;;;;;;;4989346;28;20034;-74
2021/12/28 07:24:27;;;;;;;147.63;50.15;;;-0.70;99.90;;;;;;5000290;28;20084;-74
2021/12/28 07:26:53;;;;;;;159.23;49.40;;;-0.70;99.90;;;;;;4995012;28;20097;-74
2021/12/28 07:29:19;;;;;;;154.63;50.53;;;-0.80;99.90;;;;;;5004608;28;20026;-74
2021/12/28 07:31:45;;;;;;;157.82;49.53;;;-0.70;99.90;;;;;;4991825;28;20034;-73
2021/12/28 07:34:11;;;;;;;162.80;49.95;;;;;;;;;;4992273;28;20032;-74
2021/12/28 07:36:37;;;;;;;144.98;49.00;;;;;;;;;;4999686;28;20511;-74
2021/12/28 07:39:04;;;;;;;151.20;49.17;;;-0.70;99.90;;;;;;4991698;28;20046;-73
2021/12/28 07:41:30;;;;;;;148.55;50.22;;;;;;;;;;4997365;28;20054;-74
2021/12/28 07:43:57;;;;;;;159.25;50.85;;;;;;;;;;5004064;28;20037;-74
2021/12/28 07:46:23;;;;;;;153.25;47.35;;;;;;;;;;4998182;28;20068;-74
2021/12/28 07:48:49;;;;;;;154.32;49.88;;;;;;;;;;4991742;28;20492;-76
2021/12/28 07:51:14;;;;;;;156.07;50.13;;;-0.70;99.90;;;;;;4996420;28;20306;-74
2021/12/28 07:53:40;;;;;;;164.45;50.63;;;-0.70;99.90;;;;;;5003546;28;20204;-74
2021/12/28 07:56:06;;;;;;;148.23;48.60;;;-0.70;99.90;;;;;;4987794;28;20570;-74
2021/12/28 07:58:32;;;;;;;158.55;50.13;;;;;;;;;;4990309;28;20689;-74
2021/12/28 08:00:58;;;;;;;151.20;49.25;;;;;;;;;;5002365;28;20077;-74
2021/12/28 08:03:24;;;;;;;149.52;49.35;;;;;;;;;;4991997;28;20109;-75
2021/12/28 08:05:51;;;;;;;153.18;49.45;;;-0.60;99.90;;;;;;4994557;28;20539;-73
2021/12/28 08:08:18;;;;;;;147.27;49.03;;;;;;;;;;4986922;28;20117;-74
2021/12/28 08:10:43;;;;;;;154.05;51.65;;;-0.50;99.90;;;;;;4990667;28;20052;-74
2021/12/28 08:13:09;;;;;;;152.77;49.40;;;;;;;;;;5003192;28;20492;-75
2021/12/28 08:15:36;;;;;;;166.13;51.40;;;;;;;;;;5005289;28;20022;-74
2021/12/28 08:18:03;;;;;;;161.85;50.78;;;-0.40;99.90;;;;;;4997573;28;20034;-74
2021/12/28 08:20:29;;;;;;;143.38;48.78;;;-0.30;99.90;;;;;;4997215;28;20033;-75
2021/12/28 08:22:56;;;;;;;151.00;49.15;;;;;;;;;;5004683;28;20026;-75
2021/12/28 08:25:22;;;;;;;155.20;48.72;;;;;;;;;;5038708;23;20144;-71
2021/12/28 08:27:49;;;;;;;155.50;50.45;;;-0.30;99.90;;;;;;5051160;28;20028;-72
2021/12/28 08:30:15;;;;;;;151.25;48.58;;;;;;;;;;5051935;28;20041;-70
2021/12/28 08:32:41;;;;;;;147.63;50.58;;;-0.20;99.90;;;;;;5058895;28;20544;-72
2021/12/28 08:35:08;;;;;;;157.25;50.00;;;-0.10;99.90;;;;;;5049608;28;20454;-70
2021/12/28 08:37:34;;;;;;;152.50;49.55;;;0.00;99.90;;;;;;5046950;28;20112;-71
2021/12/28 08:40:00;;;;;;;159.20;52.60;;;;;;;;;;5037574;28;20112;-71
2021/12/28 08:42:25;;;;;;;146.30;48.75;;;0.90;99.90;;;;;;5058509;28;20028;-72
2021/12/28 08:44:51;;;;;;;151.82;49.42;;;0.20;99.90;;;;;;5046626;28;20090;-72
2021/12/28 08:47:17;;;;;;;158.82;50.50;;;;;;;;;;5041650;28;20060;-74
2021/12/28 08:49:43;;;;;;;156.85;48.97;;;;;;;;;;5037675;28;20065;-73
2021/12/28 08:52:09;;;;;;;147.90;49.72;;;0.40;99.90;;;;;;5057711;28;20449;-73
2021/12/28 08:54:36;;;;;;;149.27;47.60;;;;;;;;;;5047792;28;20075;-74
2021/12/28 08:57:02;;;;;;;144.10;49.25;;;0.50;99.90;;;;;;5062514;28;20020;-73
2021/12/28 08:59:28;;;;;;;141.43;48.40;;;0.40;99.90;;;;;;5050008;28;20016;-73
2021/12/28 09:01:56;;;;;;;149.13;48.45;;;;;;;;;;5057694;28;20021;-73
2021/12/28 09:04:22;;;;;;;145.98;48.38;;;;;;;;;;5049090;28;20017;-72
2021/12/28 09:06:48;;;;;;;157.00;48.28;;;0.40;99.90;;;;;;5060679;28;20040;-72
2021/12/28 09:09:14;;;;;;;146.23;47.72;;;0.70;99.90;;;;;;5038198;28;20033;-72
2021/12/28 09:11:40;;;;;;;143.60;48.00;;;0.50;99.90;;;;;;5038402;28;20083;-71
2021/12/28 09:14:06;;;;;;;151.10;47.75;;;1.30;99.90;;;;;;5051524;28;20029;-72
2021/12/28 09:16:31;;;;;;;143.00;48.03;;;0.50;99.90;;;;;;5052581;28;20405;-70
2021/12/28 09:18:57;;;;;;;150.27;47.80;;;0.60;99.90;;;;;;5053299;28;20025;-72
2021/12/28 09:21:23;;;;;;;142.95;46.20;;;0.60;99.90;;;;;;5038709;28;20490;-73
2021/12/28 09:23:48;;;;;;;146.27;49.47;;;0.60;99.90;;;;;;5037469;28;20029;-72
2021/12/28 09:26:14;;;;;;;150.93;50.33;;;2.10;99.90;;;;;;5055940;28;20040;-70
2021/12/28 09:28:39;;;;;;;136.73;44.92;;;0.70;99.90;;;;;;5047471;28;20021;-71
2021/12/28 09:31:05;;;;;;;149.90;49.17;;;0.70;99.90;;;;;;5037401;28;20499;-72
2021/12/28 09:33:30;;;;;;;146.52;47.38;;;0.80;99.90;;;;;;5043515;28;20024;-71
2021/12/28 09:35:57;;;;;;;143.20;47.15;;;0.80;99.90;;;;;;5041989;28;20078;-72
2021/12/28 09:38:23;;;;;;;138.63;48.38;;;0.90;99.90;;;;;;5044952;28;20013;-71
2021/12/28 09:40:50;;;;;;;129.25;45.92;;;0.80;99.90;;;;;;5049740;28;20139;-74
2021/12/28 09:43:16;;;;;;;130.40;42.50;;;0.90;99.90;;;;;;5055515;28;20028;-73
2021/12/28 09:45:42;;;;;;;138.95;47.80;;;0.90;99.90;;;;;;5053563;28;20083;-73
2021/12/28 09:48:09;;;;;;;140.30;45.83;;;0.90;99.90;;;;;;5046617;28;20630;-71
2021/12/28 09:50:36;;;;;;;137.02;47.03;;;0.80;99.90;;;;;;5038304;28;20398;-71
2021/12/28 09:53:03;;;;;;;141.25;48.45;;;0.80;99.90;;;;;;5042857;28;20025;-71
2021/12/28 09:55:29;;;;;;;145.50;47.30;;;0.80;99.90;;;;;;5054709;28;20090;-71
2021/12/28 09:57:57;;;;;;;132.57;43.92;;;0.80;99.90;;;;;;5050779;28;20425;-72
2021/12/28 10:00:22;;;;;;;134.20;45.72;;;0.70;99.90;;;;;;5045028;28;20029;-73
2021/12/28 10:02:49;;;;;;;132.88;45.15;;;0.70;99.90;;;;;;5047415;28;20030;-74
2021/12/28 10:05:18;;;;;;;132.32;43.47;;;0.80;99.90;;;;;;5051923;28;20025;-72
2021/12/28 10:07:50;;;;;;;135.93;45.33;;;0.90;99.90;;;;;;5056227;28;20029;-74
2021/12/28 10:10:16;;;;;;;136.77;44.25;;;1.00;99.90;;;;;;5045799;28;20625;-71
2021/12/28 10:12:44;;;;;;;136.77;44.00;;;1.20;99.90;;;;;;5041560;28;20087;-72
2021/12/28 10:15:14;;;;;;;137.32;46.25;;;1.10;99.90;;;;;;5044283;28;20112;-72
2021/12/28 10:17:43;;;;;;;128.68;43.35;;;1.20;99.90;;;;;;5053694;28;20024;-73
2021/12/28 10:20:31;;;;;;;132.68;45.33;;;4.00;99.90;;;;;;5044549;28;20027;-73
2021/12/28 10:22:59;;;;;;;138.30;45.85;;;1.60;99.90;;;;;;5053246;28;20048;-73
2021/12/28 10:25:27;;;;;;;129.30;43.38;;;1.80;99.90;;;;;;5056174;28;20028;-70
2021/12/28 10:27:59;;;;;;;123.90;45.10;;;1.80;99.90;;;;;;5047500;28;20561;-71
2021/12/28 10:30:44;;;;;;;123.95;41.95;;;1.90;99.90;;;;;;5053933;28;20032;-69
2021/12/28 10:33:23;;;;;;;131.77;45.88;;;4.50;99.90;;;;;;5055349;28;20032;-70
2021/12/28 10:35:52;;;;;;;130.15;44.65;;;2.00;99.90;;;;;;5054771;28;20024;-70
2021/12/28 10:38:27;;;;;;;131.23;42.67;;;2.10;99.90;;;;;;5042601;28;20074;-72
2021/12/28 10:40:56;;;;;;;;;;;2.30;99.90;;;;;;5053679;28;20050;-72
2021/12/28 10:43:28;;;;;;;119.55;40.10;;;2.40;99.90;;;;;;5043799;28;19991;-70
2021/12/28 10:46:01;;;;;;;119.43;41.33;;;2.60;99.90;;;;;;5053625;28;20029;-74
2021/12/28 10:48:32;;;;;;;126.53;42.75;;;2.70;99.90;;;;;;5051381;28;20033;-73
2021/12/28 10:51:08;;;;;;;113.32;40.60;;;2.80;99.90;;;;;;5042327;28;20089;-72
2021/12/28 10:54:05;;;;;;;122.63;41.22;;;2.90;99.90;;;;;;5037405;28;20727;-73
2021/12/28 10:56:57;;;;;;;129.50;41.58;;;3.10;99.90;;;;;;5041484;28;20024;-72
2021/12/28 10:59:25;;;;;;;122.82;39.97;;;3.10;99.90;;;;;;5056439;28;20858;-72
2021/12/28 11:01:53;;;;;;;111.25;38.88;;;3.00;99.90;;;;;;5052517;28;20127;-70
2021/12/28 11:04:19;;;;;;;121.78;40.17;;;2.90;99.90;;;;;;5038692;28;20028;-68
2021/12/28 11:06:52;;;;;;;118.63;41.42;;;2.90;99.90;;;;;;5051219;28;20101;-71
2021/12/28 11:09:19;;;;;;;128.95;43.85;;;3.50;99.90;;;;;;5048747;28;20033;-69
2021/12/28 11:11:46;;;;;;;122.38;42.20;;;2.90;99.90;;;;;;5055476;28;20120;-71
2021/12/28 11:14:17;;;;;;;114.32;42.60;;;2.80;99.90;;;;;;5046271;28;20474;-72
2021/12/28 11:16:58;;;;;;;125.57;42.42;;;2.80;99.90;;;;;;5059566;28;20039;-72
2021/12/28 11:19:31;;;;;;;118.72;39.42;;;2.70;99.90;;;;;;5052399;28;20040;-74
2021/12/28 11:22:03;;;;;;;115.72;39.92;;;2.70;99.90;;;;;;5046724;28;20108;-71
2021/12/28 11:24:34;;;;;;;117.38;40.55;;;2.60;99.90;;;;;;5057078;28;20033;-70
2021/12/28 11:27:01;;;;;;;114.15;38.97;;;2.60;99.90;;;;;;5040056;28;20108;-70
2021/12/28 11:29:36;;;;;;;113.05;38.75;;;2.60;99.90;;;;;;5049467;28;20013;-72
2021/12/28 11:32:05;;;;;;;126.03;40.65;;;2.60;99.90;;;;;;5054398;28;20558;-73
2021/12/28 11:34:34;;;;;;;107.85;38.45;;;2.70;99.90;;;;;;5058514;28;20107;-69
2021/12/28 11:37:04;;;;;;;119.72;42.15;;;2.60;99.90;;;;;;5043460;28;20033;-71
2021/12/28 11:39:33;;;;;;;118.47;41.45;;;2.60;99.90;;;;;;5052033;28;20039;-71
2021/12/28 11:42:00;;;;;;;117.40;41.10;;;2.80;99.90;;;;;;5046691;28;20025;-71
2021/12/28 11:44:28;;;;;;;108.15;38.88;;;2.70;99.90;;;;;;5046797;28;20516;-73
2021/12/28 11:46:55;;;;;;;117.25;41.58;;;2.60;99.90;;;;;;5045215;28;20098;-74
2021/12/28 11:49:25;;;;;;;127.03;41.88;;;2.70;99.90;;;;;;5052050;28;20029;-74
2021/12/28 11:51:52;;;;;;;107.88;38.65;;;;;;;;;;5062430;28;20101;-73
2021/12/28 11:54:19;;;;;;;115.40;40.60;;;3.30;99.90;;;;;;5059250;28;20016;-74
2021/12/28 11:56:55;;;;;;;116.90;38.95;;;2.70;99.90;;;;;;5069350;28;20038;-71
2021/12/28 11:59:26;;;;;;;111.65;39.58;;;2.60;99.90;;;;;;5052013;28;20126;-71
2021/12/28 12:01:51;;;;;;;112.97;38.17;;;2.70;99.90;;;;;;5049373;28;20025;-71
2021/12/28 12:04:45;;;;;;;106.18;38.28;;;2.50;99.90;;;;;;5048772;28;20035;-73
2021/12/28 12:07:13;;;;;;;97.75;37.55;;;2.80;99.90;;;;;;5055267;28;20037;-72
2021/12/28 12:09:54;;;;;;;106.43;37.47;;;2.90;99.90;;;;;;5053558;28;20020;-72
2021/12/28 12:12:29;;;;;;;106.78;37.88;;;2.40;99.90;;;;;;5042618;28;20052;-74
2021/12/28 12:14:58;;;;;;;108.32;36.83;;;2.90;99.90;;;;;;5050660;28;20028;-73
2021/12/28 12:17:38;;;;;;;111.20;39.30;;;2.90;99.90;;;;;;5054935;28;20025;-73
2021/12/28 12:20:06;;;;;;;106.45;37.40;;;3.10;99.90;;;;;;5065418;28;20033;-71
2021/12/28 12:22:48;;;;;;;106.32;36.67;;;3.10;99.90;;;;;;5038811;28;20130;-73
2021/12/28 12:25:19;;;;;;;111.47;37.38;;;3.10;99.90;;;;;;5041135;28;20030;-71
2021/12/28 12:27:59;;;;;;;104.35;37.17;;;3.10;99.90;;;;;;5040409;28;20804;-72
2021/12/28 12:30:28;;;;;;;97.90;35.42;;;3.10;99.90;;;;;;5039214;28;20017;-73
2021/12/28 12:33:06;;;;;;;103.78;36.05;;;3.10;99.90;;;;;;5041394;28;20104;-73
2021/12/28 12:35:50;;;;;;;103.75;38.72;;;3.20;99.90;;;;;;5042827;28;20041;-73
2021/12/28 12:38:16;;;;;;;95.95;36.85;;;3.10;99.90;;;;;;5041438;28;20546;-74
2021/12/28 12:41:03;;;;;;;102.85;36.72;;;3.20;99.90;;;;;;5045233;28;20028;-73
2021/12/28 12:43:40;;;;;;;101.47;35.55;;;3.20;99.90;;;;;;5048257;28;20017;-73
2021/12/28 12:46:09;;;;;;;97.88;34.78;;;3.30;99.90;;;;;;5062313;28;20025;-71
2021/12/28 12:48:39;;;;;;;96.22;34.03;;;3.10;99.90;;;;;;5062346;28;20458;-70